Etusivu
METAR-TAF:

METAR-TAF

Lentoasemat :

Bergamo, Italia

Orio al Serion lentoasema

Leveyspiiri: 45-40N, Pituuspiiri: 009-42E, korkeus merenpinnasta: 238 m

Tämänhetkinen sää

Tämä raportti tehtiin 38 minuuttia sitten, kello 18.20 UTC
Tuuli 3 kn etelästä, vaihdellen kaakon ja etelän/lounaan välillä
Lämpötila 23°C
Kosteus 53%
Ilmanpaine 1010 hPa
Näkyvyys 10 km tai enemmän
Muutamia pilviä 4000 ft:n korkeudessa

METAR: LIME 261820Z 19003KT 140V210 9999 FEW040 23/13 Q1010 NOSIG

Aika: 20:58 (18:58 UTC)

Sääennuste

Tämä raportti tehtiin 1 tunti ja 58 minuuttia sitten, kello 17.00 UTC
Ennuste voimassa 26. päivästä klo 18 UTC - 27. päivään klo 18 UTC
Tuuli 8 kn kaakosta
Näkyvyys 10 km tai enemmän
Hajanaisia pilviä 5000 ft:n korkeudessa

TAF: LIME 261700Z 2618/2718 13008KT 9999 SCT050

Säähavainnot ja -ennusteet yli 4000 lentoasemalta (METAR- ja TAF-raportit).

Käytössä olevat sääasemat on merkitty karttaan keltaisilla ja punaisilla pisteillä.

Aseta hiiri pisteen päälle nähdäksesi sääaseman nimen.

Klikkaa sitten nähdäksesi säähavainnot ja -ennusteet.

Kartan vaihtaminen: klikkaa mustalla rastilla varustettuja vihreitä pisteitä, niin voit zoomata sisään; viivalla varustettua vihreää pistettä, niin voit zoomata ulos tai vihreitä nuolia, niin pääset viereisille kartoille.


METAR-TAF: